createdAt,value
2018-11-03T00:00:16.874Z,5.43
2018-11-03T00:01:27.057Z,5.44
2018-11-03T00:02:37.380Z,5.41
2018-11-03T00:03:47.237Z,5.4
2018-11-03T00:04:57.941Z,5.47
2018-11-03T00:06:08.125Z,5.4
2018-11-03T00:07:17.732Z,5.26
2018-11-03T00:08:27.058Z,5.38
2018-11-03T00:09:36.982Z,5.37
2018-11-03T00:10:46.902Z,5.38
2018-11-03T00:11:57.079Z,5.4
2018-11-03T00:13:07.009Z,5.51
2018-11-03T00:14:16.900Z,5.49
2018-11-03T00:15:26.804Z,5.52
2018-11-03T00:16:36.699Z,5.55
2018-11-03T00:17:46.605Z,5.49
2018-11-03T00:18:56.209Z,5.44
2018-11-03T00:20:05.827Z,5.37
2018-11-03T00:21:15.438Z,5.37
2018-11-03T00:22:25.354Z,5.37
2018-11-03T00:23:35.515Z,5.36
2018-11-03T00:24:45.403Z,5.26
2018-11-03T00:25:55.008Z,5.22
2018-11-03T00:27:05.207Z,5.22
2018-11-03T00:28:15.442Z,5.25
2018-11-03T00:29:25.832Z,5.29
2018-11-03T00:30:36.206Z,5.19
2018-11-03T00:31:45.757Z,5.25
2018-11-03T00:32:55.931Z,5.36
2018-11-03T00:34:05.538Z,5.26
2018-11-03T00:35:15.441Z,5.22
2018-11-03T00:36:25.311Z,5.23
2018-11-03T00:37:35.189Z,5.26
2018-11-03T00:38:47.369Z,5.18
2018-11-03T00:39:57.260Z,5.22
2018-11-03T00:41:06.878Z,5.25
2018-11-03T00:42:16.747Z,5.19
2018-11-03T00:43:26.608Z,5.23
2018-11-03T00:44:36.595Z,5.16
2018-11-03T00:45:46.243Z,5.22
2018-11-03T00:46:56.116Z,5.12
2018-11-03T00:48:05.722Z,5.15
2018-11-03T00:49:15.893Z,5.07
2018-11-03T00:50:25.257Z,5.04
2018-11-03T00:51:35.415Z,5.07
2018-11-03T00:52:45.569Z,4.98
2018-11-03T00:53:56.897Z,5.01
2018-11-03T00:55:06.736Z,5.01
2018-11-03T00:56:16.906Z,5.04
2018-11-03T00:57:26.817Z,5.04
2018-11-03T00:58:36.982Z,4.98
2018-11-03T00:59:46.855Z,4.87
2018-11-03T01:00:56.725Z,4.95
2018-11-03T01:02:06.929Z,4.92
2018-11-03T01:03:16.805Z,4.87
2018-11-03T01:04:26.397Z,4.9
2018-11-03T01:05:36.563Z,4.86
2018-11-03T01:06:46.168Z,4.87
2018-11-03T01:07:56.043Z,4.79
2018-11-03T01:09:05.634Z,4.82
2018-11-03T01:10:15.226Z,4.78
2018-11-03T01:11:24.825Z,4.76
2018-11-03T01:12:34.706Z,4.84
2018-11-03T01:13:44.585Z,4.75
2018-11-03T01:14:54.179Z,4.78
2018-11-03T01:16:03.764Z,4.74
2018-11-03T01:17:14.413Z,4.76
2018-11-03T01:18:25.321Z,4.82
2018-11-03T01:19:35.310Z,4.76
2018-11-03T01:20:45.460Z,4.79
2018-11-03T01:21:55.617Z,4.79
2018-11-03T01:23:05.213Z,4.79
2018-11-03T01:24:15.378Z,4.76
2018-11-03T01:25:25.276Z,4.79
2018-11-03T01:26:35.431Z,4.78
2018-11-03T01:27:45.585Z,4.76
2018-11-03T01:28:55.477Z,4.71
2018-11-03T01:30:05.352Z,4.79
2018-11-03T01:31:14.968Z,4.71
2018-11-03T01:32:25.360Z,4.79
2018-11-03T01:33:35.772Z,4.76
2018-11-03T01:34:45.938Z,4.75
2018-11-03T01:35:56.094Z,4.75
2018-11-03T01:37:05.689Z,4.7
2018-11-03T01:38:15.274Z,4.74
2018-11-03T01:39:25.593Z,4.76
2018-11-03T01:40:36.011Z,4.71
2018-11-03T01:41:46.611Z,4.75
2018-11-03T01:42:56.493Z,4.71
2018-11-03T01:44:06.086Z,4.75
2018-11-03T01:45:16.353Z,4.68
2018-11-03T01:46:25.944Z,4.82
2018-11-03T01:47:36.145Z,4.68
2018-11-03T01:48:46.021Z,4.75
2018-11-03T01:49:55.624Z,4.67
2018-11-03T01:51:05.543Z,4.64
2018-11-03T01:52:15.736Z,4.67
2018-11-03T01:53:25.886Z,4.75
2018-11-03T01:54:36.035Z,4.7
2018-11-03T01:55:46.183Z,4.7
2018-11-03T01:56:56.053Z,4.68
2018-11-03T01:58:05.645Z,4.67
2018-11-03T01:59:15.520Z,4.71
2018-11-03T02:00:25.497Z,4.67
2018-11-03T02:01:35.106Z,4.74
2018-11-03T02:02:46.055Z,4.6
2018-11-03T02:03:56.874Z,4.66
2018-11-03T02:05:06.741Z,4.64
2018-11-03T02:06:16.911Z,4.66
2018-11-03T02:07:26.779Z,4.66
2018-11-03T02:08:36.653Z,4.6
2018-11-03T02:09:46.818Z,4.6
2018-11-03T02:10:56.976Z,4.6
2018-11-03T02:12:06.567Z,4.48
2018-11-03T02:13:16.441Z,4.5
2018-11-03T02:14:26.320Z,4.43
2018-11-03T02:15:36.193Z,4.5
2018-11-03T02:16:46.351Z,4.43
2018-11-03T02:17:56.504Z,4.46
2018-11-03T02:19:06.123Z,4.32
2018-11-03T02:20:16.278Z,4.39
2018-11-03T02:21:26.425Z,4.27
2018-11-03T02:22:36.333Z,4.32
2018-11-03T02:23:46.347Z,4.22
2018-11-03T02:24:57.618Z,4.22
2018-11-03T02:26:07.928Z,4.24
2018-11-03T02:27:17.795Z,4.09
2018-11-03T02:28:27.949Z,4.09
2018-11-03T02:29:38.098Z,4.12
2018-11-03T02:30:48.247Z,4.02
2018-11-03T02:31:58.424Z,4.07
2018-11-03T02:33:08.300Z,3.96
2018-11-03T02:34:18.189Z,4.03
2018-11-03T02:35:28.387Z,3.96
2018-11-03T02:36:38.533Z,3.94
2018-11-03T02:37:48.693Z,3.91
2018-11-03T02:38:58.885Z,3.96
2018-11-03T02:40:08.760Z,3.91
2018-11-03T02:41:18.671Z,3.91
2018-11-03T02:42:28.835Z,3.91
2018-11-03T02:43:38.175Z,3.94
2018-11-03T02:44:48.041Z,3.96
2018-11-03T02:45:58.477Z,3.94
2018-11-03T02:47:09.805Z,3.84
2018-11-03T02:48:20.080Z,3.91
2018-11-03T02:49:29.993Z,3.82
2018-11-03T02:50:39.604Z,3.78
2018-11-03T02:51:49.768Z,3.77
2018-11-03T02:52:59.646Z,3.82
2018-11-03T02:54:09.863Z,3.73
2018-11-03T02:55:19.733Z,3.71
2018-11-03T02:56:29.890Z,3.68
2018-11-03T02:57:39.792Z,3.56
2018-11-03T02:58:49.655Z,3.59
2018-11-03T02:59:59.536Z,3.64
2018-11-03T03:01:09.453Z,3.58
2018-11-03T03:02:19.338Z,3.55
2018-11-03T03:03:29.498Z,3.52
2018-11-03T03:04:39.384Z,3.49
2018-11-03T03:05:49.265Z,3.43
2018-11-03T03:06:58.849Z,3.46
2018-11-03T03:08:09.024Z,3.43
2018-11-03T03:09:19.604Z,3.33
2018-11-03T03:10:30.726Z,3.46
2018-11-03T03:11:40.890Z,3.3
2018-11-03T03:12:51.054Z,3.37
2018-11-03T03:14:01.209Z,3.21
2018-11-03T03:15:11.137Z,3.24
2018-11-03T03:16:21.377Z,3.18
2018-11-03T03:17:31.575Z,3.15
2018-11-03T03:18:41.448Z,3.21
2018-11-03T03:19:51.627Z,3.22
2018-11-03T03:21:01.519Z,3.19
2018-11-03T03:22:11.455Z,3.06
2018-11-03T03:23:21.330Z,3.12
2018-11-03T03:24:31.480Z,3.03
2018-11-03T03:25:41.377Z,3.05
2018-11-03T03:26:51.240Z,3.11
2018-11-03T03:28:00.857Z,3.03
2018-11-03T03:29:11.160Z,3
2018-11-03T03:30:21.390Z,2.95
2018-11-03T03:31:31.883Z,2.98
2018-11-03T03:32:42.524Z,2.9
2018-11-03T03:33:53.152Z,2.97
2018-11-03T03:35:03.027Z,2.93
2018-11-03T03:36:12.904Z,2.87
2018-11-03T03:37:22.806Z,2.93
2018-11-03T03:38:32.786Z,2.94
2018-11-03T03:39:42.664Z,2.76
2018-11-03T03:40:52.526Z,2.72
2018-11-03T03:42:02.752Z,2.72
2018-11-03T03:43:12.637Z,2.69
2018-11-03T03:44:22.784Z,2.62
2018-11-03T03:45:32.949Z,2.64
2018-11-03T03:46:42.832Z,2.62
2018-11-03T03:47:52.417Z,2.72
2018-11-03T03:49:02.572Z,2.7
2018-11-03T03:50:12.180Z,2.69
2018-11-03T03:51:22.439Z,2.8
2018-11-03T03:52:32.342Z,2.79
2018-11-03T03:53:42.500Z,2.69
2018-11-03T03:54:52.930Z,2.8
2018-11-03T03:56:03.836Z,2.7
2018-11-03T03:57:14.275Z,2.73
2018-11-03T03:58:24.464Z,2.69
2018-11-03T03:59:34.067Z,2.73
2018-11-03T04:00:44.221Z,2.73
2018-11-03T04:01:54.374Z,2.72
2018-11-03T04:03:04.543Z,2.73
2018-11-03T04:04:14.697Z,2.72
2018-11-03T04:05:24.685Z,2.75
2018-11-03T04:06:34.351Z,2.75
2018-11-03T04:07:44.229Z,2.7
2018-11-03T04:08:54.383Z,2.72
2018-11-03T04:10:04.599Z,2.7
2018-11-03T04:11:14.472Z,2.72
2018-11-03T04:12:24.069Z,2.62
2018-11-03T04:13:33.937Z,2.64
2018-11-03T04:14:43.822Z,2.64
2018-11-03T04:15:53.970Z,2.68
2018-11-03T04:17:04.135Z,2.64
2018-11-03T04:18:14.287Z,2.68
2018-11-03T04:19:25.062Z,2.61
2018-11-03T04:20:35.469Z,2.69
2018-11-03T04:21:45.593Z,2.73
2018-11-03T04:22:55.762Z,2.72
2018-11-03T04:24:05.653Z,2.64
2018-11-03T04:25:15.558Z,2.64
2018-11-03T04:26:25.440Z,2.61
2018-11-03T04:27:35.343Z,2.61
2018-11-03T04:28:45.349Z,2.54
2018-11-03T04:29:55.558Z,2.61
2018-11-03T04:31:05.758Z,2.58
2018-11-03T04:32:15.644Z,2.59
2018-11-03T04:33:25.784Z,2.59
2018-11-03T04:34:35.938Z,2.55
2018-11-03T04:35:45.548Z,2.51
2018-11-03T04:36:55.416Z,2.5
2018-11-03T04:38:05.281Z,2.54
2018-11-03T04:39:15.159Z,2.55
2018-11-03T04:40:24.749Z,2.57
2018-11-03T04:41:34.900Z,2.54
2018-11-03T04:42:44.785Z,2.47
2018-11-03T04:43:55.399Z,2.46
2018-11-03T04:45:05.434Z,2.52
2018-11-03T04:46:15.163Z,2.5
2018-11-03T04:47:25.357Z,2.41
2018-11-03T04:48:35.228Z,2.4
2018-11-03T04:49:45.119Z,2.37
2018-11-03T04:50:55.014Z,2.3
2018-11-03T04:52:04.892Z,2.32
2018-11-03T04:53:14.503Z,2.3
2018-11-03T04:54:24.668Z,2.21
2018-11-03T04:55:34.586Z,2.26
2018-11-03T04:56:44.179Z,2.18
2018-11-03T04:57:54.048Z,2.19
2018-11-03T04:59:03.908Z,2.19
2018-11-03T05:00:13.777Z,2.15
2018-11-03T05:01:23.370Z,2.15
2018-11-03T05:02:33.241Z,2.22
2018-11-03T05:03:43.405Z,2.18
2018-11-03T05:04:53.562Z,2.22
2018-11-03T05:06:03.467Z,2.19
2018-11-03T05:07:13.586Z,2.19
2018-11-03T05:08:23.926Z,2.21
2018-11-03T05:09:34.556Z,2.23
2018-11-03T05:10:44.735Z,2.21
2018-11-03T05:11:54.872Z,2.19
2018-11-03T05:13:04.807Z,2.21
2018-11-03T05:14:14.954Z,2.21
2018-11-03T05:15:25.095Z,2.16
2018-11-03T05:16:35.264Z,2.22
2018-11-03T05:17:45.140Z,2.16
2018-11-03T05:18:55.327Z,2.18
2018-11-03T05:20:05.193Z,2.22
2018-11-03T05:21:15.406Z,2.14
2018-11-03T05:22:25.899Z,2.18
2018-11-03T05:23:36.054Z,2.18
2018-11-03T05:24:46.205Z,2.22
2018-11-03T05:25:56.362Z,2.18
2018-11-03T05:27:06.217Z,2.23
2018-11-03T05:28:16.446Z,2.08
2018-11-03T05:29:27.065Z,2.18
2018-11-03T05:30:38.373Z,2.08
2018-11-03T05:31:48.638Z,2.07
2018-11-03T05:32:58.803Z,2.15
2018-11-03T05:34:08.687Z,2.04
2018-11-03T05:35:18.835Z,2.05
2018-11-03T05:36:28.988Z,2.1
2018-11-03T05:37:39.135Z,2.05
2018-11-03T05:38:49.317Z,1.98
2018-11-03T05:39:59.505Z,2.04
2018-11-03T05:41:08.820Z,2.04
2018-11-03T05:42:19.010Z,1.95
2018-11-03T05:43:29.166Z,2.01
2018-11-03T05:44:39.317Z,1.93
2018-11-03T05:45:49.185Z,1.97
2018-11-03T05:46:59.346Z,1.97
2018-11-03T05:48:09.027Z,1.95
2018-11-03T05:49:19.189Z,1.92
2018-11-03T05:50:29.350Z,1.98
2018-11-03T05:51:39.986Z,1.86
2018-11-03T05:52:50.702Z,1.86
2018-11-03T05:54:00.890Z,1.88
2018-11-03T05:55:11.045Z,1.88
2018-11-03T05:56:21.195Z,1.85
2018-11-03T05:57:31.393Z,1.92
2018-11-03T05:58:41.397Z,1.86
2018-11-03T05:59:51.367Z,1.89
2018-11-03T06:01:01.536Z,1.93
2018-11-03T06:02:11.131Z,1.93
2018-11-03T06:03:21.289Z,1.93
2018-11-03T06:04:30.891Z,2
2018-11-03T06:05:40.482Z,1.98
2018-11-03T06:06:50.678Z,1.97
2018-11-03T06:08:00.559Z,1.98
2018-11-03T06:09:10.139Z,2.01
2018-11-03T06:10:20.297Z,2.07
2018-11-03T06:11:30.514Z,2.16
2018-11-03T06:12:40.921Z,2.19
2018-11-03T06:13:52.019Z,2.34
2018-11-03T06:15:02.406Z,2.34
2018-11-03T06:16:12.550Z,2.26
2018-11-03T06:17:22.701Z,2.26
2018-11-03T06:18:32.855Z,2.4
2018-11-03T06:19:42.997Z,2.34
2018-11-03T06:20:53.172Z,2.34
2018-11-03T06:22:03.040Z,2.39
2018-11-03T06:23:13.773Z,2.26
2018-11-03T06:24:24.229Z,2.39
2018-11-03T06:25:33.536Z,2.26
2018-11-03T06:26:43.821Z,2.26
2018-11-03T06:27:54.057Z,2.33
2018-11-03T06:29:06.170Z,2.37
2018-11-03T06:30:16.359Z,2.39
2018-11-03T06:31:26.242Z,2.4
2018-11-03T06:32:36.145Z,2.43
2018-11-03T06:33:46.021Z,2.37
2018-11-03T06:34:56.883Z,2.34
2018-11-03T06:36:06.808Z,2.36
2018-11-03T06:37:16.989Z,2.36
2018-11-03T06:38:27.176Z,2.37
2018-11-03T06:39:37.337Z,2.41
2018-11-03T06:41:13.976Z,2.33
2018-11-03T06:42:24.274Z,2.4
2018-11-03T06:43:34.751Z,2.39
2018-11-03T06:44:45.054Z,2.41
2018-11-03T06:45:54.369Z,2.41
2018-11-03T06:47:04.749Z,2.34
2018-11-03T06:48:15.782Z,2.36
2018-11-03T06:49:26.570Z,2.37
2018-11-03T06:50:36.445Z,2.36
2018-11-03T06:51:46.051Z,2.37
2018-11-03T06:52:56.209Z,2.25
2018-11-03T06:54:06.365Z,2.33
2018-11-03T06:55:16.520Z,2.22
2018-11-03T06:56:26.686Z,2.18
2018-11-03T06:57:36.857Z,2.28
2018-11-03T06:58:47.078Z,2.19
2018-11-03T06:59:56.978Z,2.23
2018-11-03T07:01:07.135Z,2.21
2018-11-03T07:02:17.329Z,2.14
2018-11-03T07:03:27.248Z,1.98
2018-11-03T07:04:37.393Z,2.05
2018-11-03T07:05:47.257Z,1.95
2018-11-03T07:06:57.409Z,2.01
2018-11-03T07:08:06.717Z,2
2018-11-03T07:09:17.227Z,1.93
2018-11-03T07:10:27.627Z,1.88
2018-11-03T07:11:39.043Z,1.82
2018-11-03T07:12:50.700Z,1.76
2018-11-03T07:14:01.296Z,1.85
2018-11-03T07:15:10.886Z,1.81
2018-11-03T07:16:20.795Z,1.71
2018-11-03T07:17:31.224Z,1.74
2018-11-03T07:18:41.371Z,1.76
2018-11-03T07:19:51.270Z,1.71
2018-11-03T07:21:00.926Z,1.71
2018-11-03T07:22:11.078Z,1.61
2018-11-03T07:23:20.943Z,1.61
2018-11-03T07:24:31.096Z,1.64
2018-11-03T07:25:41.006Z,1.6
2018-11-03T07:26:51.236Z,1.56
2018-11-03T07:28:00.548Z,1.58
2018-11-03T07:29:10.137Z,1.7
2018-11-03T07:30:19.721Z,1.63
2018-11-03T07:31:29.613Z,1.64
2018-11-03T07:32:39.198Z,1.66
2018-11-03T07:33:49.644Z,1.61
2018-11-03T07:34:59.742Z,1.66
2018-11-03T07:36:10.334Z,1.75
2018-11-03T07:37:19.929Z,1.7
2018-11-03T07:38:30.076Z,1.75
2018-11-03T07:39:39.969Z,1.81
2018-11-03T07:40:49.789Z,1.61
2018-11-03T07:41:59.870Z,1.75
2018-11-03T07:43:10.087Z,1.63
2018-11-03T07:44:19.954Z,1.74
2018-11-03T07:45:29.819Z,1.7
2018-11-03T07:46:39.992Z,1.7
2018-11-03T07:47:49.546Z,1.71
2018-11-03T07:48:59.564Z,1.78
2018-11-03T07:50:09.292Z,1.76
2018-11-03T07:51:18.895Z,1.74
2018-11-03T07:52:28.203Z,1.7
2018-11-03T07:53:38.075Z,1.7
2018-11-03T07:54:47.938Z,1.71
2018-11-03T07:55:58.271Z,1.68
2018-11-03T07:57:08.153Z,1.71
2018-11-03T07:58:18.319Z,1.74
2018-11-03T07:59:28.289Z,1.75
2018-11-03T08:00:39.021Z,1.71
2018-11-03T08:01:50.501Z,1.76
2018-11-03T08:03:01.491Z,1.75
2018-11-03T08:04:11.385Z,1.71
2018-11-03T08:05:21.272Z,1.84
2018-11-03T08:06:31.133Z,1.81
2018-11-03T08:07:41.008Z,1.79
2018-11-03T08:08:51.310Z,1.86
2018-11-03T08:10:01.017Z,1.85
2018-11-03T08:11:11.163Z,1.95
2018-11-03T08:12:20.797Z,1.92
2018-11-03T08:13:30.940Z,1.98
2018-11-03T08:14:40.805Z,2.03
2018-11-03T08:15:50.953Z,2.05
2018-11-03T08:17:01.671Z,2.04
2018-11-03T08:18:11.864Z,2.14
2018-11-03T08:19:22.020Z,2.04
2018-11-03T08:20:31.603Z,2.16
2018-11-03T08:21:41.756Z,2.18
2018-11-03T08:22:51.636Z,2.25
2018-11-03T08:24:02.696Z,2.28
2018-11-03T08:25:13.643Z,2.28
2018-11-03T08:26:23.793Z,2.36
2018-11-03T08:27:33.945Z,2.25
2018-11-03T08:28:44.140Z,2.41
2018-11-03T08:29:54.294Z,2.32
2018-11-03T08:31:03.884Z,2.37
2018-11-03T08:32:14.034Z,2.34
2018-11-03T08:33:23.907Z,2.37
2018-11-03T08:34:33.769Z,2.33
2018-11-03T08:35:43.354Z,2.34
2018-11-03T08:36:52.945Z,2.34
2018-11-03T08:38:02.811Z,2.39
2018-11-03T08:39:12.683Z,2.39
2018-11-03T08:40:22.894Z,2.37
2018-11-03T08:41:32.776Z,2.4
2018-11-03T08:42:42.373Z,2.4
2018-11-03T08:43:51.966Z,2.47
2018-11-03T08:45:02.119Z,2.43
2018-11-03T08:46:11.427Z,2.51
2018-11-03T08:47:22.612Z,2.54
2018-11-03T08:48:33.138Z,2.57
2018-11-03T08:49:43.518Z,2.5
2018-11-03T08:50:53.392Z,2.47
2018-11-03T08:52:03.261Z,2.61
2018-11-03T08:53:13.142Z,2.62
2018-11-03T08:54:22.734Z,2.62
2018-11-03T08:55:32.037Z,2.62
2018-11-03T08:56:41.903Z,2.58
2018-11-03T08:57:52.042Z,2.59
2018-11-03T08:59:02.194Z,2.61
2018-11-03T09:00:12.029Z,2.62
2018-11-03T09:01:22.771Z,2.64
2018-11-03T09:02:32.927Z,2.64
2018-11-03T09:03:43.091Z,2.64
2018-11-03T09:04:52.956Z,2.65
2018-11-03T09:06:03.132Z,2.76
2018-11-03T09:07:13.145Z,2.76
2018-11-03T09:08:24.056Z,2.76
2018-11-03T09:09:34.375Z,2.75
2018-11-03T09:10:44.537Z,2.79
2018-11-03T09:11:54.720Z,2.77
2018-11-03T09:13:04.311Z,2.76
2018-11-03T09:14:13.915Z,2.88
2018-11-03T09:15:24.038Z,2.9
2018-11-03T09:16:34.191Z,2.88
2018-11-03T09:17:46.118Z,2.93
2018-11-03T09:18:55.990Z,2.88
2018-11-03T09:20:05.880Z,2.88
2018-11-03T09:21:15.769Z,2.9
2018-11-03T09:22:25.115Z,2.88
2018-11-03T09:23:35.127Z,2.9
2018-11-03T09:24:44.991Z,2.93
2018-11-03T09:25:55.277Z,2.9
2018-11-03T09:27:04.887Z,2.9
2018-11-03T09:28:15.088Z,2.91
2018-11-03T09:29:25.447Z,2.88
2018-11-03T09:30:35.873Z,2.94
2018-11-03T09:31:46.305Z,2.93
2018-11-03T09:32:56.079Z,2.83
2018-11-03T09:34:05.950Z,2.85
2018-11-03T09:35:16.101Z,2.87
2018-11-03T09:36:26.277Z,2.88
2018-11-03T09:37:36.165Z,2.93
2018-11-03T09:38:46.890Z,2.97
2018-11-03T09:39:56.702Z,2.91
2018-11-03T09:41:06.589Z,3.01
2018-11-03T09:42:16.461Z,3.06
2018-11-03T09:43:26.499Z,3.13
2018-11-03T09:44:37.035Z,3.08
2018-11-03T09:45:47.275Z,3.13
2018-11-03T09:46:57.144Z,3.18
2018-11-03T09:48:07.020Z,3.22
2018-11-03T09:49:17.188Z,3.15
2018-11-03T09:50:27.643Z,3.22
2018-11-03T09:51:38.892Z,3.26
2018-11-03T09:52:49.339Z,3.22
2018-11-03T09:53:58.969Z,3.24
2018-11-03T09:55:08.848Z,3.31
2018-11-03T09:56:19.074Z,3.36
2018-11-03T09:57:29.104Z,3.24
2018-11-03T09:58:38.980Z,3.33
2018-11-03T09:59:48.570Z,3.45
2018-11-03T10:00:58.716Z,3.46
2018-11-03T10:02:08.876Z,3.48
2018-11-03T10:03:18.753Z,3.52
2018-11-03T10:04:28.932Z,3.63
2018-11-03T10:05:39.095Z,3.61
2018-11-03T10:06:49.465Z,3.66
2018-11-03T10:07:59.347Z,3.66
2018-11-03T10:09:09.555Z,3.78
2018-11-03T10:10:19.710Z,3.78
2018-11-03T10:11:29.580Z,3.7
2018-11-03T10:12:39.512Z,3.76
2018-11-03T10:13:50.488Z,3.74
2018-11-03T10:15:00.382Z,3.78
2018-11-03T10:16:10.349Z,3.78
2018-11-03T10:17:20.527Z,3.91
2018-11-03T10:18:30.711Z,3.85
2018-11-03T10:19:40.869Z,3.85
2018-11-03T10:20:51.060Z,3.82
2018-11-03T10:22:00.801Z,3.81
2018-11-03T10:23:10.157Z,3.91
2018-11-03T10:24:20.073Z,3.91
2018-11-03T10:25:30.245Z,3.96
2018-11-03T10:26:40.413Z,3.86
2018-11-03T10:27:50.568Z,3.91
2018-11-03T10:29:00.726Z,3.99
2018-11-03T10:30:10.897Z,4.02
2018-11-03T10:31:21.055Z,4.1
2018-11-03T10:32:31.201Z,4.16
2018-11-03T10:33:41.912Z,4.14
2018-11-03T10:34:52.577Z,4.22
2018-11-03T10:36:02.974Z,4.21
2018-11-03T10:37:13.581Z,4.25
2018-11-03T10:38:23.724Z,4.28
2018-11-03T10:39:33.364Z,4.22
2018-11-03T10:40:42.961Z,4.2
2018-11-03T10:41:52.838Z,4.25
2018-11-03T10:43:02.721Z,4.24
2018-11-03T10:44:12.039Z,4.25
2018-11-03T10:45:21.966Z,4.25
2018-11-03T10:46:32.640Z,4.28
2018-11-03T10:47:42.904Z,4.25
2018-11-03T10:48:52.783Z,4.2
2018-11-03T10:50:02.952Z,4.25
2018-11-03T10:51:12.814Z,4.21
2018-11-03T10:52:23.038Z,4.4
2018-11-03T10:53:33.382Z,4.4
2018-11-03T10:54:43.899Z,4.34
2018-11-03T10:55:53.774Z,4.36
2018-11-03T10:57:03.705Z,4.4
2018-11-03T10:58:14.264Z,4.34
2018-11-03T10:59:24.790Z,4.4
2018-11-03T11:00:34.655Z,4.43
2018-11-03T11:01:44.852Z,4.42
2018-11-03T11:02:55.008Z,4.4
2018-11-03T11:04:04.907Z,4.42
2018-11-03T11:05:14.209Z,4.48
2018-11-03T11:06:24.099Z,4.34
2018-11-03T11:07:33.979Z,4.42
2018-11-03T11:08:44.151Z,4.43
2018-11-03T11:09:54.014Z,4.49
2018-11-03T11:11:03.891Z,4.39
2018-11-03T11:12:13.813Z,4.43
2018-11-03T11:13:23.414Z,4.49
2018-11-03T11:14:33.375Z,4.49
2018-11-03T11:15:43.414Z,4.56
2018-11-03T11:16:53.408Z,4.4
2018-11-03T11:18:03.565Z,4.56
2018-11-03T11:19:13.487Z,4.49
2018-11-03T11:20:24.289Z,4.61
2018-11-03T11:21:34.558Z,4.66
2018-11-03T11:22:44.433Z,4.74
2018-11-03T11:23:54.418Z,4.78
2018-11-03T11:25:05.617Z,4.84
2018-11-03T11:26:16.023Z,4.92
2018-11-03T11:27:25.640Z,4.94
2018-11-03T11:28:35.559Z,4.9
2018-11-03T11:29:45.782Z,5.01
2018-11-03T11:30:55.650Z,5
2018-11-03T11:32:05.449Z,5
2018-11-03T11:33:15.040Z,5.04
2018-11-03T11:34:24.958Z,5.1
2018-11-03T11:35:34.839Z,5.01
2018-11-03T11:36:45.030Z,5.07
2018-11-03T11:37:55.233Z,5.07
2018-11-03T11:39:04.827Z,5.02
2018-11-03T11:40:14.704Z,5.02
2018-11-03T11:41:24.913Z,5.04
2018-11-03T11:42:35.183Z,5
2018-11-03T11:43:46.076Z,5.02
2018-11-03T11:44:56.258Z,5.08
2018-11-03T11:46:05.847Z,5.19
2018-11-03T11:47:16.002Z,5.12
2018-11-03T11:48:26.154Z,5.15
2018-11-03T11:49:36.302Z,5.13
2018-11-03T11:50:46.477Z,5.12
2018-11-03T11:51:56.631Z,5.01
2018-11-03T11:53:06.506Z,5.01
2018-11-03T11:54:16.667Z,5.1
2018-11-03T11:55:26.044Z,5.05
2018-11-03T11:56:36.192Z,5.12
2018-11-03T11:57:46.404Z,5.08
2018-11-03T11:58:56.560Z,4.98
2018-11-03T12:00:05.886Z,5.07
2018-11-03T12:01:15.580Z,5
2018-11-03T12:02:26.112Z,4.98
2018-11-03T12:03:36.822Z,5.02
2018-11-03T12:04:46.699Z,5
2018-11-03T12:05:57.196Z,4.94
2018-11-03T12:07:07.681Z,4.98
2018-11-03T12:08:18.081Z,4.92
2018-11-03T12:09:27.951Z,4.86
2018-11-03T12:10:38.095Z,4.83
2018-11-03T12:11:48.277Z,4.79
2018-11-03T12:12:58.204Z,4.87
2018-11-03T12:14:08.404Z,4.82
2018-11-03T12:15:18.274Z,4.87
2018-11-03T12:16:27.618Z,4.83
2018-11-03T12:17:37.775Z,4.79
2018-11-03T12:18:47.949Z,4.78
2018-11-03T12:19:58.152Z,4.87
2018-11-03T12:21:08.020Z,4.87
2018-11-03T12:22:17.633Z,4.86
2018-11-03T12:23:27.799Z,4.84
2018-11-03T12:24:37.394Z,4.82
2018-11-03T12:25:48.111Z,4.89
2018-11-03T12:26:58.697Z,4.75
2018-11-03T12:28:08.982Z,4.86
2018-11-03T12:29:19.952Z,4.86
2018-11-03T12:30:30.979Z,4.83
2018-11-03T12:31:40.579Z,4.86
2018-11-03T12:32:50.791Z,4.87
2018-11-03T12:34:00.405Z,4.86
2018-11-03T12:35:10.298Z,4.83
2018-11-03T12:36:20.564Z,4.83
2018-11-03T12:37:30.451Z,4.82
2018-11-03T12:38:40.650Z,4.78
2018-11-03T12:39:50.833Z,4.71
2018-11-03T12:41:01.547Z,4.67
2018-11-03T12:42:11.396Z,4.71
2018-11-03T12:43:21.313Z,4.61
2018-11-03T12:44:30.952Z,4.66
2018-11-03T12:45:40.851Z,4.56
2018-11-03T12:46:51.000Z,4.57
2018-11-03T12:48:00.778Z,4.66
2018-11-03T12:49:10.868Z,4.63
2018-11-03T12:50:20.749Z,4.6
2018-11-03T12:51:30.886Z,4.63
2018-11-03T12:52:42.002Z,4.63
2018-11-03T12:53:52.160Z,4.6
2018-11-03T12:55:02.418Z,4.6
2018-11-03T12:56:12.634Z,4.5
2018-11-03T12:57:22.804Z,4.53
2018-11-03T12:58:32.707Z,4.5
2018-11-03T12:59:42.907Z,4.53
2018-11-03T13:00:53.067Z,4.58
2018-11-03T13:02:02.939Z,4.56
2018-11-03T13:03:12.601Z,4.48
2018-11-03T13:04:23.039Z,4.53
2018-11-03T13:05:33.188Z,4.52
2018-11-03T13:06:43.489Z,4.5
2018-11-03T13:07:53.640Z,4.52
2018-11-03T13:09:03.468Z,4.56
2018-11-03T13:10:13.343Z,4.42
2018-11-03T13:11:23.573Z,4.43
2018-11-03T13:12:33.420Z,4.39
2018-11-03T13:13:43.556Z,4.45
2018-11-03T13:14:53.679Z,4.42
2018-11-03T13:16:03.539Z,4.49
2018-11-03T13:17:13.767Z,4.49
2018-11-03T13:18:23.886Z,4.42
2018-11-03T13:19:33.739Z,4.42
2018-11-03T13:20:43.602Z,4.43
2018-11-03T13:21:52.908Z,4.31
2018-11-03T13:23:03.258Z,4.31
2018-11-03T13:24:13.111Z,4.32
2018-11-03T13:25:22.691Z,4.4
2018-11-03T13:26:32.541Z,4.34
2018-11-03T13:27:42.387Z,4.3
2018-11-03T13:28:52.522Z,4.34
2018-11-03T13:30:02.660Z,4.36
2018-11-03T13:31:12.793Z,4.31
2018-11-03T13:32:22.637Z,4.38
2018-11-03T13:33:32.496Z,4.34
2018-11-03T13:34:42.759Z,4.38
2018-11-03T13:35:53.026Z,4.34
2018-11-03T13:37:02.876Z,4.3
2018-11-03T13:38:12.728Z,4.36
2018-11-03T13:39:22.849Z,4.38
2018-11-03T13:40:32.974Z,4.34
2018-11-03T13:41:42.875Z,4.42
2018-11-03T13:42:53.001Z,4.38
2018-11-03T13:44:02.854Z,4.32
2018-11-03T13:45:12.431Z,4.36
2018-11-03T13:46:22.330Z,4.3
2018-11-03T13:47:32.331Z,4.36
2018-11-03T13:48:42.038Z,4.4
2018-11-03T13:49:51.887Z,4.39
2018-11-03T13:51:02.016Z,4.31
2018-11-03T13:52:11.921Z,4.42
2018-11-03T13:53:22.045Z,4.36
2018-11-03T13:54:31.626Z,4.43
2018-11-03T13:55:41.747Z,4.43
2018-11-03T13:56:51.390Z,4.46
2018-11-03T13:58:01.347Z,4.46
2018-11-03T13:59:10.931Z,4.46
2018-11-03T14:00:20.782Z,4.45
2018-11-03T14:01:30.358Z,4.45
2018-11-03T14:02:40.484Z,4.45
2018-11-03T14:03:50.208Z,4.39
2018-11-03T14:05:00.057Z,4.5
2018-11-03T14:06:09.645Z,4.38
2018-11-03T14:07:19.774Z,4.48
2018-11-03T14:08:29.908Z,4.46
2018-11-03T14:09:40.084Z,4.53
2018-11-03T14:10:50.207Z,4.5
2018-11-03T14:12:00.381Z,4.48
2018-11-03T14:13:10.234Z,4.48
2018-11-03T14:14:20.424Z,4.53
2018-11-03T14:15:30.401Z,4.56
2018-11-03T14:16:40.040Z,4.46
2018-11-03T14:17:49.891Z,4.36
2018-11-03T14:18:59.759Z,4.45
2018-11-03T14:20:09.616Z,4.5
2018-11-03T14:21:19.473Z,4.43
2018-11-03T14:22:29.596Z,4.42
2018-11-03T14:23:40.217Z,4.3
2018-11-03T14:24:50.065Z,4.36
2018-11-03T14:26:00.190Z,4.3
2018-11-03T14:27:10.383Z,4.36
2018-11-03T14:28:20.561Z,4.25
2018-11-03T14:29:29.861Z,4.31
2018-11-03T14:30:39.709Z,4.27
2018-11-03T14:31:49.568Z,4.3
2018-11-03T14:32:59.190Z,4.24
2018-11-03T14:34:08.759Z,4.27
2018-11-03T14:35:19.047Z,4.3
2018-11-03T14:36:29.459Z,4.28
2018-11-03T14:37:39.587Z,4.3
2018-11-03T14:38:49.207Z,4.24
2018-11-03T14:39:59.054Z,4.31
2018-11-03T14:41:08.914Z,4.28
2018-11-03T14:42:18.484Z,4.28
2018-11-03T14:43:28.613Z,4.28
2018-11-03T14:44:38.376Z,4.27
2018-11-03T14:45:48.663Z,4.24
2018-11-03T14:46:59.091Z,4.28
2018-11-03T14:48:09.220Z,4.28
2018-11-03T14:49:18.798Z,4.24
2018-11-03T14:50:28.975Z,4.25
2018-11-03T14:51:39.099Z,4.3
2018-11-03T14:52:49.220Z,4.27
2018-11-03T14:53:58.796Z,4.25
2018-11-03T14:55:08.373Z,4.24
2018-11-03T14:56:18.646Z,4.3
2018-11-03T14:57:28.589Z,4.3
2018-11-03T14:58:38.717Z,4.27
2018-11-03T14:59:48.841Z,4.28
2018-11-03T15:00:58.962Z,4.21
2018-11-03T15:02:08.590Z,4.21
2018-11-03T15:03:18.723Z,4.28
2018-11-03T15:04:28.572Z,4.27
2018-11-03T15:05:38.704Z,4.22
2018-11-03T15:06:48.838Z,4.28
2018-11-03T15:07:58.967Z,4.1
2018-11-03T15:09:08.550Z,4.16
2018-11-03T15:10:18.407Z,4.14
2018-11-03T15:11:28.530Z,4.14
2018-11-03T15:12:38.653Z,4.13
2018-11-03T15:13:49.491Z,4.12
2018-11-03T15:15:00.312Z,4.2
2018-11-03T15:16:10.182Z,4.21
2018-11-03T15:17:20.313Z,4.28
2018-11-03T15:18:30.160Z,4.21
2018-11-03T15:19:40.340Z,4.27
2018-11-03T15:20:50.468Z,4.28
2018-11-03T15:22:00.316Z,4.2
2018-11-03T15:23:10.211Z,4.2
2018-11-03T15:24:20.347Z,4.25
2018-11-03T15:25:30.253Z,4.21
2018-11-03T15:26:40.394Z,4.27
2018-11-03T15:27:50.255Z,4.2
2018-11-03T15:28:59.834Z,4.2
2018-11-03T15:30:09.710Z,4.28
2018-11-03T15:31:19.614Z,4.3
2018-11-03T15:32:29.448Z,4.22
2018-11-03T15:33:39.302Z,4.14
2018-11-03T15:34:49.592Z,4.3
2018-11-03T15:35:58.889Z,4.31
2018-11-03T15:37:09.015Z,4.24